Aviation Digital Data Service (ADDS)

Output produced by METARs form (0621 UTC 23 August 2017)
found at http://aviationweather.gov/adds/metars/
 
KBFD 230551Z 2306/2406 32007G15KT P6SM BKN040 
     FM231300 30010G20KT P6SM SCT040 
     FM231900 33010G20KT P6SM BKN040 
     FM240100 35006KT P6SM BKN035